Recharge — WDG3657 — position and weather

sailwx.info

Track history (hours):
 
Tides and Currents Weather Stations Pressure Air Temp Water Temp Dewpoint Dewpoint Depression Visibility Wind Speed Wind Dir Waves Ship Positions

Recharge

Owner: Peterson, Alec H, Lake Forest Park, WA. More information available from US FCC via Universal Licensing System and Coast Guard Vessel Documentation Center.

Last reported at 2017-Aug-28 18:41 UTC. Time now 2017-Nov-24 16:25 UTC.
Position N 47°60' W 122°13'.
Warning: this ship's position is months out of date.

Length 12 m.

Type: Sailing vessel. MMSI: 367528340.

Date/timePositionNaut miles runAvg speedWind from/ knotsBaromVisibWave heightAir tempDewpointWater temp
2017-Aug-28 18:41N 47°60' W 122°13'1 4.9
2017-Aug-28 18:29N 47°59' W 122°15'  
2017-Aug-25 19:15N 48°28' W 122°43'2 8.9
2017-Aug-25 19:00N 48°30' W 122°45'4 8.0
2017-Aug-25 18:30N 48°32' W 122°49'4 7.2
2017-Aug-25 17:59N 48°35' W 122°54'4 0.1
2017-Aug-23 19:20N 48°38' W 122°58'3 5.9
2017-Aug-23 18:52N 48°35' W 122°55'2 6.2
2017-Aug-23 18:30N 48°35' W 122°52'22 0.5
2017-Aug-21 18:37N 48°46' W 123°20'1 7.8
2017-Aug-21 18:30N 48°47' W 123°21'3 7.0
2017-Aug-21 18:00N 48°50' W 123°24'3 0.1
2017-Aug-20 20:14N 48°51' W 123°27'0 0.1
2017-Aug-20 20:00N 48°51' W 123°27'1 1.3
2017-Aug-20 19:27N 48°52' W 123°26'4 6.9
2017-Aug-20 18:55N 48°55' W 123°30'3 7.0
2017-Aug-20 18:28N 48°57' W 123°33'6 7.2
2017-Aug-20 17:36N 49°02' W 123°39'1 6.9
2017-Aug-20 17:25N 49°03' W 123°40'4 7.3
2017-Aug-20 16:56N 49°06' W 123°42'2 3.8
2017-Aug-20 16:30N 49°08' W 123°41'3 6.6
2017-Aug-20 16:00N 49°11' W 123°39'4 7.3
2017-Aug-20 15:27N 49°14' W 123°37'3 7.0
2017-Aug-20 15:00N 49°17' W 123°35'4 7.2
2017-Aug-20 14:30N 49°21' W 123°32'4 7.6
2017-Aug-20 13:59N 49°24' W 123°29'1 0.0
2017-Aug-19 19:29N 49°24' W 123°28'1 1.9
2017-Aug-19 19:00N 49°24' W 123°30'1 2.8
2017-Aug-19 18:30N 49°23' W 123°31'3 6.9
2017-Aug-19 18:00N 49°23' W 123°26'4 7.2
2017-Aug-19 17:30N 49°26' W 123°23'2 4.6
2017-Aug-19 17:00N 49°28' W 123°21'0 0.0
2017-Aug-18 20:52N 49°28' W 123°21'1 3.8
2017-Aug-18 20:29N 49°27' W 123°22'3 6.5
2017-Aug-18 19:59N 49°25' W 123°26'1 1.8
2017-Aug-18 19:30N 49°25' W 123°28'1 2.6
2017-Aug-18 19:00N 49°24' W 123°29'  
Track history (hours):
 
Tides and Currents Weather Stations Pressure Air Temp Water Temp Dewpoint Dewpoint Depression Visibility Wind Speed Wind Dir Waves Ship Positions

Recharge

Owner: Peterson, Alec H, Lake Forest Park, WA. More information available from US FCC via Universal Licensing System and Coast Guard Vessel Documentation Center.

Last reported at 2017-Aug-28 18:41 UTC. Time now 2017-Nov-24 16:25 UTC.
Position N 47°60' W 122°13'.
Warning: this ship's position is months out of date.

Length 12 m.

Type: Sailing vessel. MMSI: 367528340.

Date/timePositionNaut miles runAvg speedWind from/ knotsBaromVisibWave heightAir tempDewpointWater temp
2017-Aug-28 18:41N 47°60' W 122°13'1 4.9
2017-Aug-28 18:29N 47°59' W 122°15'  
2017-Aug-25 19:15N 48°28' W 122°43'2 8.9
2017-Aug-25 19:00N 48°30' W 122°45'4 8.0
2017-Aug-25 18:30N 48°32' W 122°49'4 7.2
2017-Aug-25 17:59N 48°35' W 122°54'4 0.1
2017-Aug-23 19:20N 48°38' W 122°58'3 5.9
2017-Aug-23 18:52N 48°35' W 122°55'2 6.2
2017-Aug-23 18:30N 48°35' W 122°52'22 0.5
2017-Aug-21 18:37N 48°46' W 123°20'1 7.8
2017-Aug-21 18:30N 48°47' W 123°21'3 7.0
2017-Aug-21 18:00N 48°50' W 123°24'3 0.1
2017-Aug-20 20:14N 48°51' W 123°27'0 0.1
2017-Aug-20 20:00N 48°51' W 123°27'1 1.3
2017-Aug-20 19:27N 48°52' W 123°26'4 6.9
2017-Aug-20 18:55N 48°55' W 123°30'3 7.0
2017-Aug-20 18:28N 48°57' W 123°33'6 7.2
2017-Aug-20 17:36N 49°02' W 123°39'1 6.9
2017-Aug-20 17:25N 49°03' W 123°40'4 7.3
2017-Aug-20 16:56N 49°06' W 123°42'2 3.8
2017-Aug-20 16:30N 49°08' W 123°41'3 6.6
2017-Aug-20 16:00N 49°11' W 123°39'4 7.3
2017-Aug-20 15:27N 49°14' W 123°37'3 7.0
2017-Aug-20 15:00N 49°17' W 123°35'4 7.2
2017-Aug-20 14:30N 49°21' W 123°32'4 7.6
2017-Aug-20 13:59N 49°24' W 123°29'1 0.0
2017-Aug-19 19:29N 49°24' W 123°28'1 1.9
2017-Aug-19 19:00N 49°24' W 123°30'1 2.8
2017-Aug-19 18:30N 49°23' W 123°31'3 6.9
2017-Aug-19 18:00N 49°23' W 123°26'4 7.2
2017-Aug-19 17:30N 49°26' W 123°23'2 4.6
2017-Aug-19 17:00N 49°28' W 123°21'0 0.0
2017-Aug-18 20:52N 49°28' W 123°21'1 3.8
2017-Aug-18 20:29N 49°27' W 123°22'3 6.5
2017-Aug-18 19:59N 49°25' W 123°26'1 1.8
2017-Aug-18 19:30N 49°25' W 123°28'1 2.6
2017-Aug-18 19:00N 49°24' W 123°29'  

Dump ship's entire track history